createdAt,value
2016-12-03T00:00:06.797Z,969.76
2016-12-03T00:01:06.797Z,969.77
2016-12-03T00:02:06.792Z,969.76
2016-12-03T00:03:06.789Z,969.77
2016-12-03T00:04:06.785Z,969.74
2016-12-03T00:05:06.781Z,969.78
2016-12-03T00:06:06.777Z,969.78
2016-12-03T00:07:06.773Z,969.83
2016-12-03T00:08:06.769Z,969.79
2016-12-03T00:09:06.765Z,969.77
2016-12-03T00:10:06.764Z,969.79
2016-12-03T00:11:06.756Z,969.78
2016-12-03T00:12:06.756Z,969.79
2016-12-03T00:13:06.752Z,969.79
2016-12-03T00:14:06.748Z,969.81
2016-12-03T00:15:06.744Z,969.82
2016-12-03T00:16:06.740Z,969.81
2016-12-03T00:17:06.736Z,969.81
2016-12-03T00:18:06.732Z,969.81
2016-12-03T00:19:06.730Z,969.81
2016-12-03T00:20:06.724Z,969.78
2016-12-03T00:21:06.720Z,969.78
2016-12-03T00:22:06.716Z,969.76
2016-12-03T00:23:06.716Z,969.74
2016-12-03T00:24:06.712Z,969.76
2016-12-03T00:25:06.708Z,969.78
2016-12-03T00:26:06.704Z,969.73
2016-12-03T00:27:06.700Z,969.73
2016-12-03T00:28:06.697Z,969.72
2016-12-03T00:29:06.692Z,969.73
2016-12-03T00:30:06.688Z,969.71
2016-12-03T00:31:06.684Z,969.68
2016-12-03T00:32:06.684Z,969.69
2016-12-03T00:33:06.680Z,969.67
2016-12-03T00:34:06.675Z,969.64
2016-12-03T00:35:06.672Z,969.67
2016-12-03T00:36:06.668Z,969.62
2016-12-03T00:37:06.664Z,969.67
2016-12-03T00:38:06.660Z,969.62
2016-12-03T00:39:06.656Z,969.66
2016-12-03T00:40:06.652Z,969.58
2016-12-03T00:41:06.648Z,969.58
2016-12-03T00:42:06.644Z,969.59
2016-12-03T00:43:06.644Z,969.62
2016-12-03T00:44:06.636Z,969.58
2016-12-03T00:45:06.636Z,969.58
2016-12-03T00:46:06.631Z,969.53
2016-12-03T00:47:06.628Z,969.55
2016-12-03T00:48:06.624Z,969.57
2016-12-03T00:49:06.620Z,969.58
2016-12-03T00:50:06.616Z,969.56
2016-12-03T00:51:06.612Z,969.54
2016-12-03T00:52:06.608Z,969.52
2016-12-03T00:53:06.604Z,969.56
2016-12-03T00:54:06.604Z,969.55
2016-12-03T00:55:06.596Z,969.52
2016-12-03T00:56:06.596Z,969.51
2016-12-03T00:57:06.592Z,969.45
2016-12-03T00:58:06.588Z,969.46
2016-12-03T00:59:06.584Z,969.48
2016-12-03T01:00:06.580Z,969.44
2016-12-03T01:01:06.576Z,969.43
2016-12-03T01:02:06.572Z,969.48
2016-12-03T01:03:06.568Z,969.48
2016-12-03T01:04:06.564Z,969.47
2016-12-03T01:05:06.560Z,969.42
2016-12-03T01:06:06.556Z,969.4
2016-12-03T01:07:06.552Z,969.41
2016-12-03T01:08:06.552Z,969.42
2016-12-03T01:09:06.548Z,969.41
2016-12-03T01:10:06.544Z,969.44
2016-12-03T01:11:06.540Z,969.46
2016-12-03T01:12:06.536Z,969.43
2016-12-03T01:13:06.532Z,969.41
2016-12-03T01:14:06.528Z,969.42
2016-12-03T01:15:06.525Z,969.44
2016-12-03T01:16:06.520Z,969.43
2016-12-03T01:17:06.516Z,969.37
2016-12-03T01:18:06.512Z,969.42
2016-12-03T01:19:06.512Z,969.41
2016-12-03T01:20:06.509Z,969.4
2016-12-03T01:21:06.504Z,969.42
2016-12-03T01:22:06.500Z,969.41
2016-12-03T01:23:06.497Z,969.34
2016-12-03T01:24:06.692Z,969.39
2016-12-03T01:25:06.488Z,969.38
2016-12-03T01:26:06.485Z,969.33
2016-12-03T01:27:06.480Z,969.33
2016-12-03T01:28:06.476Z,969.33
2016-12-03T01:29:06.472Z,969.36
2016-12-03T01:30:06.472Z,969.36
2016-12-03T01:31:06.468Z,969.36
2016-12-03T01:32:06.465Z,969.34
2016-12-03T01:33:06.461Z,969.32
2016-12-03T01:34:06.457Z,969.35
2016-12-03T01:35:06.455Z,969.3
2016-12-03T01:36:06.449Z,969.27
2016-12-03T01:37:06.445Z,969.29
2016-12-03T01:38:06.441Z,969.27
2016-12-03T01:39:06.437Z,969.3
2016-12-03T01:40:06.433Z,969.26
2016-12-03T01:41:06.429Z,969.32
2016-12-03T01:42:06.429Z,969.31
2016-12-03T01:43:06.425Z,969.33
2016-12-03T01:44:06.421Z,969.33
2016-12-03T01:45:06.417Z,969.29
2016-12-03T01:46:06.414Z,969.22
2016-12-03T01:47:06.409Z,969.24
2016-12-03T01:48:06.405Z,969.22
2016-12-03T01:49:06.401Z,969.25
2016-12-03T01:50:06.397Z,969.22
2016-12-03T01:51:06.393Z,969.25
2016-12-03T01:52:06.389Z,969.24
2016-12-03T01:53:06.389Z,969.21
2016-12-03T01:54:06.385Z,969.22
2016-12-03T01:55:06.381Z,969.24
2016-12-03T01:56:06.377Z,969.23
2016-12-03T01:57:06.373Z,969.21
2016-12-03T01:58:06.370Z,969.22
2016-12-03T01:59:06.365Z,969.22
2016-12-03T02:00:06.365Z,969.2
2016-12-03T02:01:06.358Z,969.15
2016-12-03T02:02:06.354Z,969.16
2016-12-03T02:03:06.350Z,969.16
2016-12-03T02:04:06.349Z,969.16
2016-12-03T02:05:06.346Z,969.15
2016-12-03T02:06:06.342Z,969.13
2016-12-03T02:07:06.338Z,969.13
2016-12-03T02:08:06.334Z,969.09
2016-12-03T02:09:06.330Z,969.07
2016-12-03T02:10:06.326Z,969.12
2016-12-03T02:11:06.322Z,969.1
2016-12-03T02:12:06.318Z,969.07
2016-12-03T02:13:06.318Z,969.02
2016-12-03T02:14:06.314Z,969.07
2016-12-03T02:15:06.310Z,969.09
2016-12-03T02:16:06.306Z,969.08
2016-12-03T02:17:06.307Z,969.07
2016-12-03T02:18:06.298Z,969.09
2016-12-03T02:19:06.294Z,969.11
2016-12-03T02:20:06.291Z,969.07
2016-12-03T02:21:06.286Z,969.09
2016-12-03T02:22:06.282Z,969.09
2016-12-03T02:23:06.279Z,969.08
2016-12-03T02:24:06.279Z,969.13
2016-12-03T02:25:06.275Z,969.16
2016-12-03T02:26:06.271Z,969.11
2016-12-03T02:27:06.267Z,969.16
2016-12-03T02:28:06.263Z,969.13
2016-12-03T02:29:06.261Z,969.12
2016-12-03T02:30:06.255Z,969.12
2016-12-03T02:31:06.251Z,969.08
2016-12-03T02:32:06.248Z,969.04
2016-12-03T02:33:06.243Z,969.06
2016-12-03T02:34:06.239Z,969.14
2016-12-03T02:35:06.239Z,969.1
2016-12-03T02:36:06.235Z,969.13
2016-12-03T02:37:06.231Z,969.13
2016-12-03T02:38:06.227Z,969.15
2016-12-03T02:39:06.223Z,969.16
2016-12-03T02:40:06.219Z,969.14
2016-12-03T02:41:06.215Z,969.14
2016-12-03T02:42:06.211Z,969.13
2016-12-03T02:43:06.207Z,969.1
2016-12-03T02:44:06.205Z,969.14
2016-12-03T02:45:06.199Z,969.15
2016-12-03T02:46:06.199Z,969.12
2016-12-03T02:47:06.195Z,969.11
2016-12-03T02:48:06.191Z,969.13
2016-12-03T02:49:06.187Z,969.11
2016-12-03T02:50:06.183Z,969.07
2016-12-03T02:51:06.179Z,969.06
2016-12-03T02:52:06.175Z,969.1
2016-12-03T02:53:06.171Z,969.13
2016-12-03T02:54:06.168Z,969.16
2016-12-03T02:55:06.164Z,969.17
2016-12-03T02:56:06.159Z,969.14
2016-12-03T02:57:06.155Z,969.19
2016-12-03T02:58:06.155Z,969.12
2016-12-03T02:59:06.152Z,969.18
2016-12-03T03:00:06.147Z,969.17
2016-12-03T03:01:06.144Z,969.21
2016-12-03T03:02:06.140Z,969.32
2016-12-03T03:03:06.136Z,969.31
2016-12-03T03:04:06.131Z,969.34
2016-12-03T03:05:06.128Z,969.34
2016-12-03T03:06:06.124Z,969.29
2016-12-03T03:07:06.120Z,969.34
2016-12-03T03:08:06.116Z,969.27
2016-12-03T03:09:06.118Z,969.29
2016-12-03T03:10:06.108Z,969.28
2016-12-03T03:11:06.108Z,969.29
2016-12-03T03:12:06.104Z,969.31
2016-12-03T03:13:06.100Z,969.31
2016-12-03T03:14:06.096Z,969.27
2016-12-03T03:15:06.092Z,969.29
2016-12-03T03:16:06.088Z,969.24
2016-12-03T03:17:06.084Z,969.32
2016-12-03T03:18:06.080Z,969.24
2016-12-03T03:19:06.076Z,969.26
2016-12-03T03:20:06.072Z,969.27
2016-12-03T03:21:06.068Z,969.28
2016-12-03T03:22:06.064Z,969.28
2016-12-03T03:23:06.064Z,969.27
2016-12-03T03:24:06.060Z,969.27
2016-12-03T03:25:06.056Z,969.23
2016-12-03T03:26:06.052Z,969.2
2016-12-03T03:27:06.048Z,969.2
2016-12-03T03:28:06.044Z,969.22
2016-12-03T03:29:06.040Z,969.21
2016-12-03T03:30:06.036Z,969.23
2016-12-03T03:31:06.032Z,969.25
2016-12-03T03:32:06.028Z,969.27
2016-12-03T03:33:06.024Z,969.25
2016-12-03T03:34:06.020Z,969.17
2016-12-03T03:35:06.020Z,969.21
2016-12-03T03:36:06.016Z,969.2
2016-12-03T03:37:06.012Z,969.17
2016-12-03T03:38:06.009Z,969.19
2016-12-03T03:39:06.005Z,969.19
2016-12-03T03:40:06.001Z,969.2
2016-12-03T03:41:05.996Z,969.2
2016-12-03T03:42:05.992Z,969.16
2016-12-03T03:43:05.988Z,969.21
2016-12-03T03:44:05.984Z,969.17
2016-12-03T03:45:05.984Z,969.18
2016-12-03T03:46:05.980Z,969.09
2016-12-03T03:47:05.976Z,969.18
2016-12-03T03:48:05.972Z,969.16
2016-12-03T03:49:05.968Z,969.12
2016-12-03T03:50:05.964Z,969.16
2016-12-03T03:51:05.961Z,969.16
2016-12-03T03:52:05.956Z,969.12
2016-12-03T03:53:05.952Z,969.12
2016-12-03T03:54:05.947Z,969.13
2016-12-03T03:55:05.943Z,969.13
2016-12-03T03:56:05.939Z,969.12
2016-12-03T03:57:05.935Z,969.13
2016-12-03T03:58:05.931Z,969.13
2016-12-03T03:59:05.927Z,969.18
2016-12-03T04:00:05.927Z,969.19
2016-12-03T04:01:05.919Z,969.17
2016-12-03T04:02:05.919Z,969.21
2016-12-03T04:03:05.914Z,969.09
2016-12-03T04:04:05.910Z,969.15
2016-12-03T04:05:05.907Z,969.15
2016-12-03T04:06:05.902Z,969.19
2016-12-03T04:07:05.898Z,969.11
2016-12-03T04:08:05.894Z,969.23
2016-12-03T04:09:05.890Z,969.16
2016-12-03T04:10:05.886Z,969.22
2016-12-03T04:11:05.882Z,969.19
2016-12-03T04:12:05.877Z,969.14
2016-12-03T04:13:05.874Z,969.2
2016-12-03T04:14:05.869Z,969.18
2016-12-03T04:15:05.869Z,969.19
2016-12-03T04:16:05.861Z,969.18
2016-12-03T04:17:05.861Z,969.26
2016-12-03T04:18:05.857Z,969.21
2016-12-03T04:19:05.853Z,969.23
2016-12-03T04:20:05.849Z,969.24
2016-12-03T04:21:05.845Z,969.23
2016-12-03T04:22:05.841Z,969.16
2016-12-03T04:23:05.837Z,969.18
2016-12-03T04:24:05.832Z,969.17
2016-12-03T04:25:05.832Z,969.22
2016-12-03T04:26:05.825Z,969.15
2016-12-03T04:27:05.820Z,969.15
2016-12-03T04:28:05.817Z,969.16
2016-12-03T04:29:05.814Z,969.13
2016-12-03T04:30:05.809Z,969.16
2016-12-03T04:31:05.804Z,969.2
2016-12-03T04:32:05.801Z,969.15
2016-12-03T04:33:05.796Z,969.15
2016-12-03T04:34:05.792Z,969.17
2016-12-03T04:35:05.792Z,969.18
2016-12-03T04:36:05.788Z,969.22
2016-12-03T04:37:05.784Z,969.21
2016-12-03T04:38:05.781Z,969.22
2016-12-03T04:39:05.777Z,969.17
2016-12-03T04:40:05.772Z,969.2
2016-12-03T04:41:05.768Z,969.2
2016-12-03T04:42:05.765Z,969.22
2016-12-03T04:43:05.761Z,969.2
2016-12-03T04:44:05.757Z,969.24
2016-12-03T04:45:05.752Z,969.26
2016-12-03T04:46:05.749Z,969.28
2016-12-03T04:47:05.745Z,969.28
2016-12-03T04:48:05.741Z,969.26
2016-12-03T04:49:05.737Z,969.3
2016-12-03T04:50:05.733Z,969.3
2016-12-03T04:51:05.729Z,969.28
2016-12-03T04:52:05.731Z,969.32
2016-12-03T04:53:05.721Z,969.28
2016-12-03T04:54:05.721Z,969.32
2016-12-03T04:55:05.717Z,969.29
2016-12-03T04:56:05.714Z,969.31
2016-12-03T04:57:05.709Z,969.32
2016-12-03T04:58:05.705Z,969.3
2016-12-03T04:59:05.702Z,969.26
2016-12-03T05:00:05.700Z,969.28
2016-12-03T05:01:05.694Z,969.3
2016-12-03T05:02:05.690Z,969.29
2016-12-03T05:03:05.686Z,969.28
2016-12-03T05:04:05.682Z,969.23
2016-12-03T05:05:05.678Z,969.27
2016-12-03T05:06:05.674Z,969.25
2016-12-03T05:07:05.673Z,969.25
2016-12-03T05:08:05.666Z,969.27
2016-12-03T05:09:05.662Z,969.23
2016-12-03T05:10:05.658Z,969.24
2016-12-03T05:11:05.654Z,969.26
2016-12-03T05:12:05.650Z,969.24
2016-12-03T05:13:05.650Z,969.25
2016-12-03T05:14:05.646Z,969.28
2016-12-03T05:15:05.642Z,969.24
2016-12-03T05:16:05.639Z,969.23
2016-12-03T05:17:05.634Z,969.24
2016-12-03T05:18:05.630Z,969.2
2016-12-03T05:19:05.627Z,969.17
2016-12-03T05:20:05.623Z,969.21
2016-12-03T05:21:05.618Z,969.18
2016-12-03T05:22:05.615Z,969.16
2016-12-03T05:23:05.610Z,969.26
2016-12-03T05:24:05.607Z,969.26
2016-12-03T05:25:05.603Z,969.32
2016-12-03T05:26:05.599Z,969.31
2016-12-03T05:27:05.595Z,969.29
2016-12-03T05:28:05.591Z,969.28
2016-12-03T05:29:05.587Z,969.22
2016-12-03T05:30:05.583Z,969.27
2016-12-03T05:31:05.579Z,969.29
2016-12-03T05:32:05.579Z,969.25
2016-12-03T05:33:05.571Z,969.28
2016-12-03T05:34:05.567Z,969.21
2016-12-03T05:35:05.567Z,969.2
2016-12-03T05:36:05.559Z,969.19
2016-12-03T05:37:05.559Z,969.23
2016-12-03T05:38:05.555Z,969.23
2016-12-03T05:39:05.551Z,969.23
2016-12-03T05:40:05.547Z,969.25
2016-12-03T05:41:05.543Z,969.21
2016-12-03T05:42:05.539Z,969.24
2016-12-03T05:43:05.535Z,969.24
2016-12-03T05:44:05.531Z,969.24
2016-12-03T05:45:05.527Z,969.26
2016-12-03T05:46:05.523Z,969.24
2016-12-03T05:47:05.519Z,969.26
2016-12-03T05:48:05.519Z,969.25
2016-12-03T05:49:05.511Z,969.29
2016-12-03T05:50:05.508Z,969.24
2016-12-03T05:51:05.503Z,969.27
2016-12-03T05:52:05.499Z,969.32
2016-12-03T05:53:05.495Z,969.29
2016-12-03T05:54:05.492Z,969.28
2016-12-03T05:55:05.488Z,969.34
2016-12-03T05:56:05.484Z,969.35
2016-12-03T05:57:05.480Z,969.29
2016-12-03T05:58:05.476Z,969.38
2016-12-03T05:59:05.472Z,969.32
2016-12-03T06:00:05.468Z,969.32
2016-12-03T06:01:05.464Z,969.3
2016-12-03T06:02:05.460Z,969.29
2016-12-03T06:03:05.456Z,969.3
2016-12-03T06:04:05.452Z,969.28
2016-12-03T06:05:05.452Z,969.27
2016-12-03T06:06:05.444Z,969.28
2016-12-03T06:07:05.440Z,969.27
2016-12-03T06:08:05.440Z,969.27
2016-12-03T06:09:05.432Z,969.27
2016-12-03T06:10:05.428Z,969.27
2016-12-03T06:11:05.428Z,969.3
2016-12-03T06:12:05.424Z,969.3
2016-12-03T06:13:05.420Z,969.33
2016-12-03T06:14:05.416Z,969.28
2016-12-03T06:15:05.413Z,969.25
2016-12-03T06:16:05.408Z,969.26
2016-12-03T06:17:05.404Z,969.22
2016-12-03T06:18:05.400Z,969.27
2016-12-03T06:19:05.397Z,969.23
2016-12-03T06:20:05.393Z,969.22
2016-12-03T06:21:05.389Z,969.28
2016-12-03T06:22:05.385Z,969.24
2016-12-03T06:23:05.381Z,969.21
2016-12-03T06:24:05.381Z,969.26
2016-12-03T06:25:05.373Z,969.25
2016-12-03T06:26:05.369Z,969.29
2016-12-03T06:27:05.365Z,969.3
2016-12-03T06:28:05.361Z,969.31
2016-12-03T06:29:05.360Z,969.31
2016-12-03T06:30:05.354Z,969.28
2016-12-03T06:31:05.349Z,969.29
2016-12-03T06:32:05.346Z,969.26
2016-12-03T06:33:05.342Z,969.28
2016-12-03T06:34:05.338Z,969.27
2016-12-03T06:35:05.334Z,969.23
2016-12-03T06:36:05.330Z,969.29
2016-12-03T06:37:05.326Z,969.25
2016-12-03T06:38:05.322Z,969.28
2016-12-03T06:39:05.318Z,969.23
2016-12-03T06:40:05.314Z,969.26
2016-12-03T06:41:05.310Z,969.28
2016-12-03T06:42:05.306Z,969.32
2016-12-03T06:43:05.303Z,969.25
2016-12-03T06:44:05.299Z,969.31
2016-12-03T06:45:05.295Z,969.27
2016-12-03T06:46:05.291Z,969.28
2016-12-03T06:47:05.287Z,969.28
2016-12-03T06:48:05.283Z,969.24
2016-12-03T06:49:05.279Z,969.24
2016-12-03T06:50:05.276Z,969.25
2016-12-03T06:51:05.276Z,969.27
2016-12-03T06:52:05.272Z,969.28
2016-12-03T06:53:05.264Z,969.26
2016-12-03T06:54:05.260Z,969.25
2016-12-03T06:55:05.262Z,969.32
2016-12-03T06:56:05.256Z,969.26
2016-12-03T06:57:05.248Z,969.32
2016-12-03T06:58:05.249Z,969.23
2016-12-03T06:59:05.245Z,969.31
2016-12-03T07:00:05.237Z,969.4
2016-12-03T07:01:05.233Z,969.3
2016-12-03T07:02:05.233Z,969.32
2016-12-03T07:03:05.230Z,969.31
2016-12-03T07:04:05.221Z,969.37
2016-12-03T07:05:05.218Z,969.38
2016-12-03T07:06:05.217Z,969.43
2016-12-03T07:07:05.214Z,969.39
2016-12-03T07:08:05.206Z,969.37
2016-12-03T07:09:05.208Z,969.44
2016-12-03T07:10:05.202Z,969.44
2016-12-03T07:11:05.194Z,969.43
2016-12-03T07:12:05.190Z,969.43
2016-12-03T07:13:05.190Z,969.45
2016-12-03T07:14:05.186Z,969.46
2016-12-03T07:15:05.179Z,969.46
2016-12-03T07:16:05.175Z,969.47
2016-12-03T07:17:05.175Z,969.44
2016-12-03T07:18:05.171Z,969.43
2016-12-03T07:19:05.163Z,969.42
2016-12-03T07:20:05.363Z,969.4
2016-12-03T07:21:05.159Z,969.42
2016-12-03T07:22:05.151Z,969.39
2016-12-03T07:23:05.148Z,969.42
2016-12-03T07:24:05.144Z,969.46
2016-12-03T07:25:05.144Z,969.42
2016-12-03T07:26:05.136Z,969.48
2016-12-03T07:27:05.132Z,969.46
2016-12-03T07:28:05.129Z,969.51
2016-12-03T07:29:05.129Z,969.51
2016-12-03T07:30:05.121Z,969.5
2016-12-03T07:31:05.117Z,969.52
2016-12-03T07:32:05.113Z,969.6
2016-12-03T07:33:05.109Z,969.53
2016-12-03T07:34:05.105Z,969.56
2016-12-03T07:35:05.101Z,969.61
2016-12-03T07:36:05.101Z,969.57
2016-12-03T07:37:05.094Z,969.62
2016-12-03T07:38:05.090Z,969.57
2016-12-03T07:39:05.086Z,969.53
2016-12-03T07:40:05.086Z,969.52
2016-12-03T07:41:05.078Z,969.58
2016-12-03T07:42:05.074Z,969.55
2016-12-03T07:43:05.070Z,969.61
2016-12-03T07:44:05.066Z,969.58
2016-12-03T07:45:05.063Z,969.58
2016-12-03T07:46:05.059Z,969.56
2016-12-03T07:47:05.055Z,969.59
2016-12-03T07:48:05.051Z,969.6
2016-12-03T07:49:05.047Z,969.58
2016-12-03T07:50:05.043Z,969.6
2016-12-03T07:51:05.039Z,969.65
2016-12-03T07:52:05.035Z,969.67
2016-12-03T07:53:05.031Z,969.68
2016-12-03T07:54:05.027Z,969.69
2016-12-03T07:55:05.024Z,969.7
2016-12-03T07:56:05.020Z,969.72
2016-12-03T07:57:05.016Z,969.69
2016-12-03T07:58:05.012Z,969.72
2016-12-03T07:59:05.007Z,969.74
2016-12-03T08:00:05.004Z,969.73
2016-12-03T08:01:05.002Z,969.68
2016-12-03T08:02:05.000Z,969.73
2016-12-03T08:03:04.992Z,969.76
2016-12-03T08:04:04.988Z,969.72
2016-12-03T08:05:04.984Z,969.7
2016-12-03T08:06:04.980Z,969.71
2016-12-03T08:07:04.976Z,969.75
2016-12-03T08:08:04.973Z,969.72
2016-12-03T08:09:04.969Z,969.78
2016-12-03T08:10:04.965Z,969.74
2016-12-03T08:11:04.961Z,969.83
2016-12-03T08:12:04.957Z,969.8
2016-12-03T08:13:04.957Z,969.75
2016-12-03T08:14:04.949Z,969.76
2016-12-03T08:15:04.945Z,969.82
2016-12-03T08:16:04.945Z,969.81
2016-12-03T08:17:04.937Z,969.84
2016-12-03T08:18:04.933Z,969.83
2016-12-03T08:19:04.929Z,969.83
2016-12-03T08:20:04.930Z,969.87
2016-12-03T08:21:04.922Z,969.81
2016-12-03T08:22:04.918Z,969.87
2016-12-03T08:23:04.918Z,969.83
2016-12-03T08:24:04.914Z,969.86
2016-12-03T08:25:04.910Z,969.92
2016-12-03T08:26:04.906Z,969.91
2016-12-03T08:27:04.902Z,969.89
2016-12-03T08:28:04.898Z,969.91
2016-12-03T08:29:04.894Z,969.96
2016-12-03T08:30:04.890Z,969.92
2016-12-03T08:31:04.886Z,969.89
2016-12-03T08:32:04.882Z,969.94
2016-12-03T08:33:04.878Z,969.97
2016-12-03T08:34:04.874Z,970.01
2016-12-03T08:35:04.874Z,970.01
2016-12-03T08:36:04.866Z,970.05
2016-12-03T08:37:04.862Z,970.01
2016-12-03T08:38:04.858Z,969.97
2016-12-03T08:39:04.854Z,969.93
2016-12-03T08:40:04.850Z,970
2016-12-03T08:41:04.847Z,970.02
2016-12-03T08:42:04.842Z,970
2016-12-03T08:43:04.838Z,969.98
2016-12-03T08:44:04.834Z,970.02
2016-12-03T08:45:04.831Z,970.03
2016-12-03T08:46:04.826Z,970.08
2016-12-03T08:47:04.823Z,970.11
2016-12-03T08:48:04.819Z,970.1
2016-12-03T08:49:04.815Z,970.01
2016-12-03T08:50:04.811Z,970.13
2016-12-03T08:51:04.807Z,970.09
2016-12-03T08:52:04.803Z,970.08
2016-12-03T08:53:04.799Z,970.1
2016-12-03T08:54:04.795Z,970.15
2016-12-03T08:55:04.791Z,970.16
2016-12-03T08:56:04.791Z,970.08
2016-12-03T08:57:04.783Z,970.07
2016-12-03T08:58:04.783Z,970.17
2016-12-03T08:59:04.779Z,970.17
2016-12-03T09:00:04.775Z,970.16
2016-12-03T09:01:04.771Z,970.18
2016-12-03T09:02:04.767Z,970.19
2016-12-03T09:03:04.763Z,970.23
2016-12-03T09:04:04.761Z,970.24
2016-12-03T09:05:04.756Z,970.24
2016-12-03T09:06:04.751Z,970.22
2016-12-03T09:07:04.747Z,970.22
2016-12-03T09:08:04.744Z,970.23
2016-12-03T09:09:04.740Z,970.33
2016-12-03T09:10:04.736Z,970.3
2016-12-03T09:11:04.732Z,970.29
2016-12-03T09:12:04.733Z,970.32
2016-12-03T09:13:04.724Z,970.25
2016-12-03T09:14:04.720Z,970.31
2016-12-03T09:15:04.720Z,970.22
2016-12-03T09:16:04.712Z,970.3
2016-12-03T09:17:04.712Z,970.25
2016-12-03T09:18:04.708Z,970.24
2016-12-03T09:19:04.704Z,970.28
2016-12-03T09:20:04.700Z,970.24
2016-12-03T09:21:04.696Z,970.3
2016-12-03T09:22:04.692Z,970.36
2016-12-03T09:23:04.688Z,970.26
2016-12-03T09:24:04.684Z,970.32
2016-12-03T09:25:04.680Z,970.28
2016-12-03T09:26:04.676Z,970.33
2016-12-03T09:27:04.672Z,970.4
2016-12-03T09:28:04.668Z,970.33
2016-12-03T09:29:04.668Z,970.39
2016-12-03T09:30:04.660Z,970.38
2016-12-03T09:31:04.660Z,970.41
2016-12-03T09:32:04.656Z,970.37
2016-12-03T09:33:04.652Z,970.37
2016-12-03T09:34:04.649Z,970.44
2016-12-03T09:35:04.645Z,970.4
2016-12-03T09:36:04.640Z,970.42
2016-12-03T09:37:04.636Z,970.4
2016-12-03T09:38:04.632Z,970.41
2016-12-03T09:39:04.628Z,970.42
2016-12-03T09:40:04.629Z,970.34
2016-12-03T09:41:04.625Z,970.4
2016-12-03T09:42:04.620Z,970.39
2016-12-03T09:43:04.616Z,970.38
2016-12-03T09:44:04.613Z,970.4
2016-12-03T09:45:04.609Z,970.41
2016-12-03T09:46:04.605Z,970.39
2016-12-03T09:47:04.601Z,970.39
2016-12-03T09:48:04.597Z,970.35
2016-12-03T09:49:04.599Z,970.44
2016-12-03T09:50:04.593Z,970.42
2016-12-03T09:51:04.589Z,970.44
2016-12-03T09:52:04.585Z,970.38
2016-12-03T09:53:04.581Z,970.37
2016-12-03T09:54:04.576Z,970.41
2016-12-03T09:55:04.572Z,970.36
2016-12-03T09:56:04.569Z,970.39
2016-12-03T09:57:04.564Z,970.36
2016-12-03T09:58:04.565Z,970.38
2016-12-03T09:59:04.563Z,970.37
2016-12-03T10:00:04.557Z,970.39
2016-12-03T10:01:04.553Z,970.41
2016-12-03T10:02:04.548Z,970.38
2016-12-03T10:03:04.544Z,970.38
2016-12-03T10:04:04.540Z,970.35
2016-12-03T10:05:04.540Z,970.38
2016-12-03T10:06:04.536Z,970.35
2016-12-03T10:07:04.532Z,970.41
2016-12-03T10:08:04.529Z,970.4
2016-12-03T10:09:04.524Z,970.42
2016-12-03T10:10:04.520Z,970.37
2016-12-03T10:11:04.516Z,970.43
2016-12-03T10:12:04.512Z,970.32
2016-12-03T10:13:04.512Z,970.32
2016-12-03T10:14:04.508Z,970.39
2016-12-03T10:15:04.504Z,970.33
2016-12-03T10:16:04.500Z,970.33
2016-12-03T10:17:04.496Z,970.37
2016-12-03T10:18:04.492Z,970.31
2016-12-03T10:19:04.489Z,970.39
2016-12-03T10:20:04.491Z,970.33
2016-12-03T10:21:04.484Z,970.3
2016-12-03T10:22:04.480Z,970.32
2016-12-03T10:23:04.476Z,970.25
2016-12-03T10:24:04.473Z,970.25
2016-12-03T10:25:04.468Z,970.29
2016-12-03T10:26:04.463Z,970.29
2016-12-03T10:27:04.464Z,970.26
2016-12-03T10:28:04.459Z,970.29
2016-12-03T10:29:04.455Z,970.25
2016-12-03T10:30:04.451Z,970.28
2016-12-03T10:31:04.447Z,970.25
2016-12-03T10:32:04.443Z,970.27
2016-12-03T10:33:04.439Z,970.24
2016-12-03T10:34:04.439Z,970.26
2016-12-03T10:35:04.434Z,970.23
2016-12-03T10:36:04.430Z,970.18
2016-12-03T10:37:04.426Z,970.19
2016-12-03T10:38:04.422Z,970.14
2016-12-03T10:39:04.417Z,970.17
2016-12-03T10:40:04.413Z,970.18
2016-12-03T10:41:04.409Z,970.19
2016-12-03T10:42:04.409Z,970.14
2016-12-03T10:43:04.405Z,970.15
2016-12-03T10:44:04.401Z,970.16
2016-12-03T10:45:04.397Z,970.14
2016-12-03T10:46:04.393Z,970.13
2016-12-03T10:47:04.388Z,970.09
2016-12-03T10:48:04.384Z,970.07
2016-12-03T10:49:04.384Z,970.09
2016-12-03T10:50:04.381Z,970.04
2016-12-03T10:51:04.376Z,970.07
2016-12-03T10:52:04.375Z,970.1
2016-12-03T10:53:04.368Z,970.09
2016-12-03T10:54:04.364Z,970.06
2016-12-03T10:55:04.360Z,970.06
2016-12-03T10:56:04.360Z,970.03
2016-12-03T10:57:04.356Z,970.03
2016-12-03T10:58:04.352Z,970.05
2016-12-03T10:59:04.348Z,969.99
2016-12-03T11:00:04.344Z,970
2016-12-03T11:01:04.343Z,970.01
2016-12-03T11:02:04.335Z,969.95
2016-12-03T11:03:04.335Z,969.97
2016-12-03T11:04:04.331Z,969.96
2016-12-03T11:05:04.327Z,969.95
2016-12-03T11:06:04.323Z,969.94
2016-12-03T11:07:04.319Z,969.88
2016-12-03T11:08:04.319Z,969.87
2016-12-03T11:09:04.315Z,969.91
2016-12-03T11:10:04.310Z,969.85
2016-12-03T11:11:04.307Z,969.84
2016-12-03T11:12:04.303Z,969.83
2016-12-03T11:13:04.299Z,969.83
2016-12-03T11:14:04.294Z,969.84
2016-12-03T11:15:04.294Z,969.82
2016-12-03T11:16:04.290Z,969.85
2016-12-03T11:17:04.286Z,969.75
2016-12-03T11:18:04.282Z,969.84
2016-12-03T11:19:04.278Z,969.83
2016-12-03T11:20:04.276Z,969.81
2016-12-03T11:21:04.274Z,969.77
2016-12-03T11:22:04.270Z,969.77
2016-12-03T11:23:04.266Z,969.76
2016-12-03T11:24:04.262Z,969.77
2016-12-03T11:25:04.259Z,969.74
2016-12-03T11:26:04.254Z,969.71
2016-12-03T11:27:04.250Z,969.69
2016-12-03T11:28:04.250Z,969.64
2016-12-03T11:29:04.247Z,969.65
2016-12-03T11:30:04.243Z,969.67
2016-12-03T11:31:04.239Z,969.66
2016-12-03T11:32:04.235Z,969.68
2016-12-03T11:33:04.235Z,969.71
2016-12-03T11:34:04.259Z,969.62
2016-12-03T11:35:04.227Z,969.63
2016-12-03T11:36:04.223Z,969.66
2016-12-03T11:37:04.223Z,969.71
2016-12-03T11:38:04.219Z,969.69
2016-12-03T11:39:04.215Z,969.65
2016-12-03T11:40:04.211Z,969.67
2016-12-03T11:41:04.207Z,969.67
2016-12-03T11:42:04.204Z,969.7
2016-12-03T11:43:04.204Z,969.67
2016-12-03T11:44:04.200Z,969.69
2016-12-03T11:45:04.196Z,969.65
2016-12-03T11:46:04.192Z,969.61
2016-12-03T11:47:04.188Z,969.68
2016-12-03T11:48:04.209Z,969.65
2016-12-03T11:49:04.184Z,969.62
2016-12-03T11:50:04.180Z,969.64
2016-12-03T11:51:04.176Z,969.64
2016-12-03T11:52:04.172Z,969.63
2016-12-03T11:53:04.168Z,969.61
2016-12-03T11:54:04.168Z,969.63
2016-12-03T11:55:04.164Z,969.65
2016-12-03T11:56:04.160Z,969.58
2016-12-03T11:57:04.156Z,969.59
2016-12-03T11:58:04.152Z,969.62
2016-12-03T11:59:04.152Z,969.6
2016-12-03T12:00:04.149Z,969.62
2016-12-03T12:01:04.145Z,969.61
2016-12-03T12:02:04.141Z,969.59
2016-12-03T12:03:04.137Z,969.59
2016-12-03T12:04:04.133Z,969.59
2016-12-03T12:05:04.133Z,969.58
2016-12-03T12:06:04.129Z,969.56
2016-12-03T12:07:04.125Z,969.57
2016-12-03T12:08:04.122Z,969.57
2016-12-03T12:09:04.117Z,969.65
2016-12-03T12:10:04.118Z,969.6
2016-12-03T12:11:04.110Z,969.6
2016-12-03T12:12:04.110Z,969.61
2016-12-03T12:13:04.106Z,969.6
2016-12-03T12:14:04.102Z,969.59
2016-12-03T12:15:04.098Z,969.55
2016-12-03T12:16:04.098Z,969.52
2016-12-03T12:17:04.095Z,969.59
2016-12-03T12:18:04.090Z,969.54
2016-12-03T12:19:04.087Z,969.48
2016-12-03T12:20:04.083Z,969.52
2016-12-03T12:21:04.078Z,969.55
2016-12-03T12:22:04.075Z,969.58
2016-12-03T12:23:04.075Z,969.54
2016-12-03T12:24:04.071Z,969.56
2016-12-03T12:25:04.067Z,969.49
2016-12-03T12:26:04.063Z,969.49
2016-12-03T12:27:04.059Z,969.47
2016-12-03T12:28:04.060Z,969.44
2016-12-03T12:29:04.056Z,969.44
2016-12-03T12:30:04.052Z,969.43